Time;durP1;ratioP1;P1;durP2;ratioP2;P2;SDS_P1;SDS_P2;PMS_P1;PMS_P2;Temp;Humidity;BMP_temperature;BMP_pressure;BME280_temperature;BME280_humidity;BME280_pressure;Samples;Min_cycle;Max_cycle;Signal;HPM_P1;HPM_P2
2022/07/22 00:01:44;;;;;;;;;;;;;;;19.50;45.18;101042.09;1677780;83;25748;-55
2022/07/22 00:04:11;;;;;;;;;;;;;;;19.45;45.05;101045.92;1681161;84;28571;-54
2022/07/22 00:06:37;;;;;;;;;;;;;;;19.36;45.30;101046.02;1680918;84;25842;-55
2022/07/22 00:09:07;;;;;;;;;;;;;;;19.30;45.69;101046.78;1690461;83;25789;-54
2022/07/22 00:11:33;;;;;;;;;;;;;;;19.24;45.50;101044.28;1692380;84;26047;-55
2022/07/22 00:14:00;;;;;;;;;;;;;;;19.17;45.87;101047.92;1692517;84;25728;-55
2022/07/22 00:16:27;;;;;;;;;;;;;;;19.10;46.20;101041.53;1692858;84;27563;-55
2022/07/22 00:18:53;;;;;;;;;;;;;;;19.07;46.19;101051.77;1691351;84;25817;-55
2022/07/22 00:21:20;;;;;;;;;;;;;;;19.02;46.12;101048.77;1692874;83;25442;-54
2022/07/22 00:23:49;;;;;;;;;;;;;;;18.97;46.37;101053.08;1692821;84;25972;-55
2022/07/22 00:26:16;;;;;;;;;;;;;;;18.92;46.80;101054.95;1693089;84;25758;-54
2022/07/22 00:28:42;;;;;;;;;;;;;;;18.88;46.79;101060.43;1692050;84;27576;-55
2022/07/22 00:31:09;;;;;;;;;;;;;;;18.85;47.05;101052.64;1662722;83;25720;-54
2022/07/22 00:33:35;;;;;;;;;;;;;;;18.82;46.86;101053.00;1682796;85;25711;-55
2022/07/22 00:36:03;;;;;;;;;;;;;;;18.78;46.81;101056.08;1682706;84;25823;-55
2022/07/22 00:38:30;;;;;;;;;;;;;;;18.74;47.58;101052.55;1682865;85;25794;-54
2022/07/22 00:40:57;;;;;;;;;;;;;;;18.70;47.39;101058.88;1686643;82;27497;-55
2022/07/22 00:43:23;;;;;;;;;;;;;;;18.67;47.51;101059.27;1686066;84;25732;-55
2022/07/22 00:45:50;;;;;;;;;;;;;;;18.63;47.42;101047.02;1699716;83;25943;-55
2022/07/22 00:48:17;;;;;;;;;;;;;;;18.61;47.32;101054.03;1712997;83;25975;-54
2022/07/22 00:50:45;;;;;;;;;;;;;;;18.59;47.22;101055.25;1712841;83;25785;-55
2022/07/22 00:53:11;;;;;;;;;;;;;;;18.56;47.40;101058.33;1713093;83;27506;-55
2022/07/22 00:55:39;;;;;;;;;;;;;;;18.55;47.32;101055.27;1712991;83;25870;-55
2022/07/22 00:58:05;;;;;;;;;;;;;;;18.53;47.63;101055.45;1713208;83;25725;-54
2022/07/22 01:00:32;;;;;;;;;;;;;;;18.50;47.40;101054.45;1709604;83;25875;-55
2022/07/22 01:02:58;;;;;;;;;;;;;;;18.47;47.33;101052.08;1713242;83;26217;-54
2022/07/22 01:05:25;;;;;;;;;;;;;;;18.41;47.32;101050.95;1713053;83;27588;-55
2022/07/22 01:07:51;;;;;;;;;;;;;;;18.37;47.61;101050.97;1712786;83;25748;-54
2022/07/22 01:10:18;;;;;;;;;;;;;;;18.33;47.86;101050.14;1713198;83;25705;-54
2022/07/22 01:12:45;;;;;;;;;;;;;;;18.28;47.56;101049.33;1686751;83;26674;-56
2022/07/22 01:15:11;;;;;;;;;;;;;;;18.22;47.92;101054.14;1710715;83;25766;-55
2022/07/22 01:17:38;;;;;;;;;;;;;;;18.18;47.72;101044.63;1710314;83;27417;-55
2022/07/22 01:20:07;;;;;;;;;;;;;;;18.13;47.77;101056.91;1711551;83;25769;-55
2022/07/22 01:22:33;;;;;;;;;;;;;;;18.12;48.16;101054.35;1711904;83;25758;-55
2022/07/22 01:25:00;;;;;;;;;;;;;;;18.06;48.07;101055.08;1711711;83;25885;-55
2022/07/22 01:27:29;;;;;;;;;;;;;;;18.03;48.17;101047.25;1712076;83;25744;-56
2022/07/22 01:29:56;;;;;;;;;;;;;;;18.01;48.31;101049.33;1711573;83;27495;-56
2022/07/22 01:32:23;;;;;;;;;;;;;;;17.96;48.13;101049.34;1712951;83;26046;-55
2022/07/22 01:34:50;;;;;;;;;;;;;;;17.92;48.33;101037.10;1713086;83;25793;-55
2022/07/22 01:37:16;;;;;;;;;;;;;;;17.89;48.28;101042.89;1713275;83;25876;-55
2022/07/22 01:39:43;;;;;;;;;;;;;;;17.90;48.42;101041.00;1713210;83;25942;-55
2022/07/22 01:42:10;;;;;;;;;;;;;;;17.88;48.13;101048.52;1713547;83;27525;-55
2022/07/22 01:44:37;;;;;;;;;;;;;;;17.88;48.24;101045.80;1712366;83;25767;-54
2022/07/22 01:47:04;;;;;;;;;;;;;;;17.86;48.58;101051.92;1701782;83;25750;-55
2022/07/22 01:49:33;;;;;;;;;;;;;;;17.83;48.53;101046.33;1687012;85;26458;-55
2022/07/22 01:51:59;;;;;;;;;;;;;;;17.81;48.63;101054.65;1687236;85;25738;-55
2022/07/22 01:54:26;;;;;;;;;;;;;;;17.78;48.67;101050.08;1687308;85;27496;-55
2022/07/22 01:56:53;;;;;;;;;;;;;;;17.78;48.13;101050.08;1691134;84;26180;-53
2022/07/22 01:59:19;;;;;;;;;;;;;;;17.77;48.26;101057.41;1701719;83;25513;-55
2022/07/22 02:01:46;;;;;;;;;;;;;;;17.74;48.57;101057.75;1684877;84;25815;-54
2022/07/22 02:04:14;;;;;;;;;;;;;;;17.73;48.74;101053.33;1687305;85;25809;-55
2022/07/22 02:06:41;;;;;;;;;;;;;;;17.74;48.27;101055.03;1687425;84;27520;-56
2022/07/22 02:09:08;;;;;;;;;;;;;;;17.70;48.79;101058.28;1687277;85;25842;-55
2022/07/22 02:11:37;;;;;;;;;;;;;;;17.67;48.74;101054.88;1687343;84;25816;-54
2022/07/22 02:14:04;;;;;;;;;;;;;;;17.64;48.76;101057.11;1687626;84;25806;-54
2022/07/22 02:16:30;;;;;;;;;;;;;;;17.61;48.68;101057.48;1702250;84;25676;-55
2022/07/22 02:18:57;;;;;;;;;;;;;;;17.58;48.73;101051.85;1702233;84;27518;-55
2022/07/22 02:21:24;;;;;;;;;;;;;;;17.56;48.83;101062.58;1702566;84;25699;-55
2022/07/22 02:23:52;;;;;;;;;;;;;;;17.51;48.85;101058.53;1702018;84;26332;-55
2022/07/22 02:26:19;;;;;;;;;;;;;;;17.48;49.51;101058.87;1702376;84;25873;-55
2022/07/22 02:28:45;;;;;;;;;;;;;;;17.45;49.86;101056.48;1701071;84;27285;-55
2022/07/22 02:31:12;;;;;;;;;;;;;;;17.43;50.12;101055.84;1673912;85;27531;-55
2022/07/22 02:33:39;;;;;;;;;;;;;;;17.42;50.12;101062.79;1673811;85;27259;-55
2022/07/22 02:36:07;;;;;;;;;;;;;;;17.39;50.54;101068.07;1673780;85;25810;-55
2022/07/22 02:38:34;;;;;;;;;;;;;;;17.37;50.47;101066.03;1674218;85;25854;-55
2022/07/22 02:41:01;;;;;;;;;;;;;;;17.36;50.77;101067.05;1673887;85;25719;-55
2022/07/22 02:43:27;;;;;;;;;;;;;;;17.36;50.77;101066.55;1674675;84;27601;-54
2022/07/22 02:45:55;;;;;;;;;;;;;;;17.35;50.73;101062.14;1700896;84;25795;-55
2022/07/22 02:48:22;;;;;;;;;;;;;;;17.36;50.42;101067.91;1699941;84;25853;-55
2022/07/22 02:50:49;;;;;;;;;;;;;;;17.38;50.60;101071.81;1700035;84;25808;-54
2022/07/22 02:53:17;;;;;;;;;;;;;;;17.39;50.41;101064.52;1699542;83;25809;-54
2022/07/22 02:55:44;;;;;;;;;;;;;;;17.36;50.54;101069.77;1699933;84;28620;-55
2022/07/22 02:58:11;;;;;;;;;;;;;;;17.34;50.43;101074.55;1695932;84;25653;-55
2022/07/22 03:00:39;;;;;;;;;;;;;;;17.35;50.73;101072.14;1691513;83;25783;-54
2022/07/22 03:03:07;;;;;;;;;;;;;;;17.36;50.42;101076.08;1684382;85;25825;-55
2022/07/22 03:05:36;;;;;;;;;;;;;;;17.38;50.90;101075.05;1684576;84;25884;-55
2022/07/22 03:08:07;;;;;;;;;;;;;;;17.40;50.69;101082.50;1683484;84;27511;-54
2022/07/22 03:10:35;;;;;;;;;;;;;;;17.41;50.79;101078.77;1684266;85;25476;-55
2022/07/22 03:13:01;;;;;;;;;;;;;;;17.40;51.14;101079.78;1688438;84;25734;-54
2022/07/22 03:15:28;;;;;;;;;;;;;;;17.38;51.22;101075.05;1696959;84;25789;-55
2022/07/22 03:17:55;;;;;;;;;;;;;;;17.39;50.98;101080.31;1698355;84;25909;-55
2022/07/22 03:20:22;;;;;;;;;;;;;;;17.40;51.10;101075.21;1698513;84;27505;-55
2022/07/22 03:22:49;;;;;;;;;;;;;;;17.42;51.07;101081.83;1676694;84;25757;-54
2022/07/22 03:25:16;;;;;;;;;;;;;;;17.41;51.28;101083.70;1698389;84;25771;-54
2022/07/22 03:27:42;;;;;;;;;;;;;;;17.43;51.44;101083.53;1698387;84;27930;-53
2022/07/22 03:30:10;;;;;;;;;;;;;;;17.44;51.42;101086.06;1697011;84;25782;-55
2022/07/22 03:32:44;;;;;;;;;;;;;;;17.47;51.49;101081.64;1695800;84;27514;-55
2022/07/22 03:35:07;;;;;;;;;;;;;;;17.51;51.41;101080.29;1695094;83;25786;-55
2022/07/22 03:37:36;;;;;;;;;;;;;;;17.56;51.44;101088.42;1695226;84;25296;-55
2022/07/22 03:40:04;;;;;;;;;;;;;;;17.59;50.84;101078.56;1695314;84;25810;-55
2022/07/22 03:42:30;;;;;;;;;;;;;;;17.64;51.41;101080.23;1695695;83;25714;-55
2022/07/22 03:44:57;;;;;;;;;;;;;;;17.68;51.02;101072.06;1682946;83;27656;-56
2022/07/22 03:47:24;;;;;;;;;;;;;;;17.73;50.82;101077.81;1687028;84;25512;-57
2022/07/22 03:49:52;;;;;;;;;;;;;;;17.79;50.42;101077.63;1689358;85;25829;-56
2022/07/22 03:52:24;;;;;;;;;;;;;;;17.85;50.82;101072.83;1689328;84;25794;-55
2022/07/22 03:54:51;;;;;;;;;;;;;;;17.93;50.20;101071.95;1689513;85;25436;-56
2022/07/22 03:57:18;;;;;;;;;;;;;;;18.02;49.52;101069.56;1689277;85;27524;-55
2022/07/22 03:59:45;;;;;;;;;;;;;;;18.14;48.34;101072.72;1694915;84;25820;-56
2022/07/22 04:02:11;;;;;;;;;;;;;;;18.23;48.36;101080.34;1701497;84;25715;-56
2022/07/22 04:04:38;;;;;;;;;;;;;;;18.32;48.17;101082.48;1692808;84;25851;-55
2022/07/22 04:07:05;;;;;;;;;;;;;;;18.42;48.01;101078.50;1692806;84;26110;-54
2022/07/22 04:09:33;;;;;;;;;;;;;;;18.52;47.78;101077.41;1692846;84;27510;-55
2022/07/22 04:12:00;;;;;;;;;;;;;;;18.62;47.58;101076.66;1692434;84;26521;-55
2022/07/22 04:14:27;;;;;;;;;;;;;;;18.71;47.40;101079.66;1692751;83;25452;-55
2022/07/22 04:16:56;;;;;;;;;;;;;;;18.78;47.13;101080.61;1693132;84;25842;-54
2022/07/22 04:19:23;;;;;;;;;;;;;;;18.85;46.92;101076.64;1673868;85;25807;-54
2022/07/22 04:21:54;;;;;;;;;;;;;;;18.93;46.78;101074.41;1674057;85;27520;-55
2022/07/22 04:24:23;;;;;;;;;;;;;;;18.98;46.68;101070.59;1673675;85;25833;-56
2022/07/22 04:26:50;;;;;;;;;;;;;;;19.06;46.50;101081.42;1673854;85;25612;-56
2022/07/22 04:29:16;;;;;;;;;;;;;;;19.12;46.49;101068.10;1674051;85;25852;-55
2022/07/22 04:31:42;;;;;;;;;;;;;;;19.18;46.33;101066.84;1674309;84;25775;-56
2022/07/22 04:34:17;;;;;;;;;;;;;;;19.24;46.38;101071.55;1702622;84;27515;-55
2022/07/22 04:36:44;;;;;;;;;;;;;;;19.30;46.15;101078.14;1702178;84;27294;-55
2022/07/22 04:39:11;;;;;;;;;;;;;;;19.34;46.30;101088.99;1702333;84;25620;-56
2022/07/22 04:41:39;;;;;;;;;;;;;;;19.38;46.13;101083.52;1702331;83;25726;-55
2022/07/22 04:44:06;;;;;;;;;;;;;;;19.44;45.95;101075.59;1702335;84;25718;-55
2022/07/22 04:46:33;;;;;;;;;;;;;;;19.51;46.01;101077.90;1697702;84;27399;-55
2022/07/22 04:49:00;;;;;;;;;;;;;;;19.53;46.19;101084.02;1705433;83;25478;-55
2022/07/22 04:51:27;;;;;;;;;;;;;;;19.58;46.38;101072.55;1717714;83;25467;-55
2022/07/22 04:53:55;;;;;;;;;;;;;;;19.66;46.25;101079.27;1716606;83;26118;-55
2022/07/22 04:56:23;;;;;;;;;;;;;;;19.72;46.26;101085.36;1716538;83;25780;-54
2022/07/22 04:58:51;;;;;;;;;;;;;;;19.82;46.02;101085.05;1700053;84;27479;-55
2022/07/22 05:01:18;;;;;;;;;;;;;;;19.89;46.15;101079.19;1695836;84;26597;-55
2022/07/22 05:06:09;;;;;;;;;;;;;;;20.08;46.02;101082.36;1815581;79;25624;-55
2022/07/22 05:08:37;;;;;;;;;;;;;;;20.11;45.94;101087.45;1788446;80;25750;-55
2022/07/22 05:11:04;;;;;;;;;;;;;;;20.20;45.92;101076.73;1788430;80;27465;-55
2022/07/22 05:13:32;;;;;;;;;;;;;;;20.28;45.99;101079.34;1788392;80;25697;-55
2022/07/22 05:16:05;;;;;;;;;;;;;;;20.38;45.86;101082.28;1788105;80;25743;-55
2022/07/22 05:18:34;;;;;;;;;;;;;;;20.43;45.79;101075.20;1788659;80;25699;-56
2022/07/22 05:21:03;;;;;;;;;;;;;;;20.51;45.35;101075.58;1788177;80;25720;-55
2022/07/22 05:23:30;;;;;;;;;;;;;;;20.62;45.27;101076.43;1773232;80;27436;-54
2022/07/22 05:25:57;;;;;;;;;;;;;;;20.69;44.96;101073.77;1788130;80;25829;-54
2022/07/22 05:28:24;;;;;;;;;;;;;;;20.75;45.60;101079.84;1782825;80;25496;-56
2022/07/22 05:30:51;;;;;;;;;;;;;;;20.85;45.66;101074.02;1777734;80;25801;-55
2022/07/22 05:33:18;;;;;;;;;;;;;;;20.92;45.51;101070.85;1769511;80;25715;-54
2022/07/22 05:35:46;;;;;;;;;;;;;;;21.02;45.52;101071.86;1769333;80;27476;-56
2022/07/22 05:38:13;;;;;;;;;;;;;;;21.11;45.39;101067.11;1770560;80;26233;-56
2022/07/22 05:40:41;;;;;;;;;;;;;;;21.20;45.14;101071.89;1778746;80;25809;-57
2022/07/22 05:43:08;;;;;;;;;;;;;;;21.28;45.05;101065.43;1773764;80;25782;-56
2022/07/22 05:45:34;;;;;;;;;;;;;;;21.34;45.02;101073.66;1774679;80;25476;-55
2022/07/22 05:48:01;;;;;;;;;;;;;;;21.40;44.94;101067.91;1772550;80;27521;-56
2022/07/22 05:50:29;;;;;;;;;;;;;;;21.48;44.87;101067.75;1751019;80;25731;-56
2022/07/22 05:52:55;;;;;;;;;;;;;;;21.57;44.82;101065.17;1751308;81;25758;-55
2022/07/22 05:55:22;;;;;;;;;;;;;;;21.67;44.78;101063.48;1751109;81;25775;-57
2022/07/22 05:57:51;;;;;;;;;;;;;;;21.72;44.57;101060.97;1761634;80;26013;-56
2022/07/22 06:00:18;;;;;;;;;;;;;;;21.80;44.34;101051.74;1761325;80;27488;-56
2022/07/22 06:02:45;;;;;;;;;;;;;;;21.86;44.30;101048.18;1768955;80;25712;-55
2022/07/22 06:05:13;;;;;;;;;;;;;;;21.93;44.42;101049.58;1758715;80;25714;-56
2022/07/22 06:07:41;;;;;;;;;;;;;;;22.04;44.03;101053.11;1741133;81;25647;-56
2022/07/22 06:10:09;;;;;;;;;;;;;;;22.10;43.98;101047.30;1737785;81;25754;-57
2022/07/22 06:12:37;;;;;;;;;;;;;;;22.17;44.04;101043.22;1734562;81;27504;-55
2022/07/22 06:15:06;;;;;;;;;;;;;;;22.24;44.23;101044.08;1732571;81;25765;-57
2022/07/22 06:17:32;;;;;;;;;;;;;;;22.32;44.21;101043.05;1737101;81;25718;-57
2022/07/22 06:20:00;;;;;;;;;;;;;;;22.39;43.80;101048.55;1743774;81;26044;-55
2022/07/22 06:22:27;;;;;;;;;;;;;;;22.45;43.73;101040.37;1749200;81;25754;-55
2022/07/22 06:24:54;;;;;;;;;;;;;;;22.53;43.91;101039.31;1751993;80;27526;-54
2022/07/22 06:27:21;;;;;;;;;;;;;;;22.58;43.39;101044.17;1740771;81;25794;-54
2022/07/22 06:29:48;;;;;;;;;;;;;;;22.66;43.28;101037.11;1737279;81;25706;-55
2022/07/22 06:32:14;;;;;;;;;;;;;;;22.75;43.31;101045.44;1744130;81;25797;-56
2022/07/22 06:34:41;;;;;;;;;;;;;;;22.85;43.25;101041.44;1740750;81;25432;-56
2022/07/22 06:37:08;;;;;;;;;;;;;;;22.93;43.31;101041.22;1736876;81;27493;-56
2022/07/22 06:39:36;;;;;;;;;;;;;;;23.04;43.58;101044.70;1741917;81;25718;-56
2022/07/22 06:42:14;;;;;;;;;;;;;;;23.16;43.39;101037.20;1736566;81;25446;-57
2022/07/22 06:44:52;;;;;;;;;;;;;;;23.24;43.17;101028.23;1743571;80;25802;-56
2022/07/22 06:47:20;;;;;;;;;;;;;;;23.34;43.38;101027.80;1730396;80;25767;-56
2022/07/22 06:49:47;;;;;;;;;;;;;;;23.45;43.20;101032.61;1730243;81;27428;-56
2022/07/22 06:52:14;;;;;;;;;;;;;;;23.58;43.03;101033.09;1727984;83;25755;-56
2022/07/22 06:54:41;;;;;;;;;;;;;;;23.69;43.00;101039.83;1728060;82;25734;-55
2022/07/22 06:57:08;;;;;;;;;;;;;;;23.81;42.90;101029.00;1728175;83;25601;-55
2022/07/22 06:59:35;;;;;;;;;;;;;;;23.88;42.89;101027.06;1728089;83;25975;-55
2022/07/22 07:02:03;;;;;;;;;;;;;;;23.96;42.39;101034.77;1724608;82;27535;-57
2022/07/22 07:04:30;;;;;;;;;;;;;;;24.06;41.98;101031.88;1731241;80;26151;-56
2022/07/22 07:06:57;;;;;;;;;;;;;;;24.18;41.92;101023.77;1774162;81;25685;-54
2022/07/22 07:09:25;;;;;;;;;;;;;;;24.32;41.29;101022.30;1772074;81;26034;-56
2022/07/22 07:11:54;;;;;;;;;;;;;;;24.46;41.38;101025.80;1772821;80;26076;-56
2022/07/22 07:14:22;;;;;;;;;;;;;;;24.58;41.40;101032.78;1771010;81;26902;-56
2022/07/22 07:16:48;;;;;;;;;;;;;;;24.68;40.99;101033.16;1774361;81;25783;-56
2022/07/22 07:19:16;;;;;;;;;;;;;;;24.79;41.31;101026.94;1773162;80;25673;-56
2022/07/22 07:21:42;;;;;;;;;;;;;;;24.91;42.03;101028.42;1745219;81;25651;-56
2022/07/22 07:24:09;;;;;;;;;;;;;;;25.03;41.42;101027.69;1742139;81;25736;-56
2022/07/22 07:26:36;;;;;;;;;;;;;;;25.14;40.64;101036.58;1741670;82;27542;-55
2022/07/22 07:29:03;;;;;;;;;;;;;;;25.20;39.66;101034.80;1751615;81;25736;-56
2022/07/22 07:31:38;;;;;;;;;;;;;;;25.28;39.69;101035.36;1772928;80;25758;-55
2022/07/22 07:34:06;;;;;;;;;;;;;;;25.38;38.90;101041.70;1773453;80;26352;-56
2022/07/22 07:36:34;;;;;;;;;;;;;;;25.43;39.45;101035.55;1774158;81;25769;-56
2022/07/22 07:39:01;;;;;;;;;;;;;;;25.52;39.58;101035.55;1774083;81;27552;-56
2022/07/22 07:41:27;;;;;;;;;;;;;;;25.60;39.32;101033.03;1773843;81;25663;-55
2022/07/22 07:43:54;;;;;;;;;;;;;;;25.71;38.66;101042.42;1774146;81;25778;-55
2022/07/22 07:46:21;;;;;;;;;;;;;;;25.78;38.85;101044.56;1756036;81;25751;-55
2022/07/22 07:48:49;;;;;;;;;;;;;;;25.84;38.11;101045.03;1737398;82;25688;-55
2022/07/22 07:51:16;;;;;;;;;;;;;;;25.88;38.54;101039.34;1772001;81;27687;-56
2022/07/22 07:53:43;;;;;;;;;;;;;;;25.96;38.44;101048.36;1774172;81;25762;-56
2022/07/22 07:56:09;;;;;;;;;;;;;;;26.07;38.34;101050.34;1774500;80;25712;-56
2022/07/22 07:58:36;;;;;;;;;;;;;;;26.14;37.83;101046.15;1749297;81;25814;-56
2022/07/22 08:01:03;;;;;;;;;;;;;;;26.23;37.52;101042.81;1742967;81;25721;-55
2022/07/22 08:03:30;;;;;;;;;;;;;;;26.33;37.50;101033.13;1737298;82;28298;-56
2022/07/22 08:05:59;;;;;;;;;;;;;;;26.43;37.53;101040.85;1770176;81;25720;-56
2022/07/22 08:08:27;;;;;;;;;;;;;;;26.49;37.52;101026.94;1774197;80;25743;-55
2022/07/22 08:10:55;;;;;;;;;;;;;;;26.58;36.75;101041.23;1774606;81;25733;-56
2022/07/22 08:13:40;;;;;;;;;;;;;;;26.72;36.94;101028.89;1774129;80;25466;-56
2022/07/22 08:16:26;;;;;;;;;;;;;;;26.92;35.55;101024.16;1774319;81;27606;-55
2022/07/22 08:18:53;;;;;;;;;;;;;;;27.06;35.87;101028.34;1760518;80;25427;-56
2022/07/22 08:21:20;;;;;;;;;;;;;;;27.19;35.44;101036.92;1756144;81;25919;-56
2022/07/22 08:23:52;;;;;;;;;;;;;;;27.37;33.73;101029.58;1760280;80;26422;-55
2022/07/22 08:26:19;;;;;;;;;;;;;;;27.46;33.98;101021.25;1757831;81;25755;-57
2022/07/22 08:28:47;;;;;;;;;;;;;;;27.51;34.02;101030.19;1764009;81;28164;-56
2022/07/22 08:31:13;;;;;;;;;;;;;;;27.55;33.64;101028.08;1754516;81;25770;-56
2022/07/22 08:33:41;;;;;;;;;;;;;;;27.57;33.58;101030.06;1757104;81;25804;-56
2022/07/22 08:36:08;;;;;;;;;;;;;;;27.62;33.61;101026.56;1758233;80;25794;-56
2022/07/22 08:38:35;;;;;;;;;;;;;;;27.68;33.32;101021.44;1761843;81;25825;-55
2022/07/22 08:41:03;;;;;;;;;;;;;;;27.74;33.56;101021.00;1763717;81;27522;-55
2022/07/22 08:43:34;;;;;;;;;;;;;;;27.83;33.70;101021.47;1737056;81;26051;-55
2022/07/22 08:46:02;;;;;;;;;;;;;;;27.92;33.64;101021.38;1754268;81;25788;-55
2022/07/22 08:48:31;;;;;;;;;;;;;;;28.06;33.17;101023.30;1755877;81;25788;-57
2022/07/22 08:51:02;;;;;;;;;;;;;;;28.15;33.13;101016.84;1756469;80;25747;-56
2022/07/22 08:53:38;;;;;;;;;;;;;;;28.31;32.84;101019.34;1756160;81;27506;-56
2022/07/22 08:56:07;;;;;;;;;;;;;;;28.44;32.61;101021.78;1760613;80;25731;-55
2022/07/22 08:58:34;;;;;;;;;;;;;;;28.64;31.06;101019.92;1761918;81;25834;-55
2022/07/22 09:01:10;;;;;;;;;;;;;;;28.80;30.47;101016.87;1737787;81;25724;-55
2022/07/22 09:03:51;;;;;;;;;;;;;;;28.91;30.65;101020.66;1754540;81;25467;-56
2022/07/22 09:06:20;;;;;;;;;;;;;;;29.04;29.95;101009.21;1766502;80;28467;-55
2022/07/22 09:09:05;;;;;;;;;;;;;;;29.19;30.42;101011.37;1777495;80;25756;-56
2022/07/22 09:11:52;;;;;;;;;;;;;;;29.30;30.52;101017.88;1766630;80;25779;-55
2022/07/22 09:14:24;;;;;;;;;;;;;;;29.45;29.47;101010.35;1764613;80;25778;-56
2022/07/22 09:16:55;;;;;;;;;;;;;;;29.56;29.95;101010.48;1762653;80;25608;-56
2022/07/22 09:19:39;;;;;;;;;;;;;;;29.80;29.56;101004.13;1786691;80;28604;-55
2022/07/22 09:22:32;;;;;;;;;;;;;;;30.04;29.88;101008.00;1774578;80;25779;-56
2022/07/22 09:25:20;;;;;;;;;;;;;;;30.26;29.17;101008.77;1769043;80;25814;-56
2022/07/22 09:28:09;;;;;;;;;;;;;;;30.45;28.69;101012.02;1771730;80;25754;-56
2022/07/22 09:30:46;;;;;;;;;;;;;;;30.75;27.98;101016.71;1778282;80;26113;-56
2022/07/22 09:33:13;;;;;;;;;;;;;;;31.10;28.13;100997.78;1769289;80;28558;-57
2022/07/22 09:35:45;;;;;;;;;;;;;;;31.47;27.44;100997.71;1766639;80;25455;-56
2022/07/22 09:38:14;;;;;;;;;;;;;;;31.73;27.42;101003.96;1773635;80;25640;-55
2022/07/22 09:40:44;;;;;;;;;;;;;;;32.04;27.13;101011.83;1766385;80;25688;-56
2022/07/22 09:43:19;;;;;;;;;;;;;;;32.34;26.55;101019.95;1781761;80;25627;-57
2022/07/22 09:46:04;;;;;;;;;;;;;;;32.61;25.92;101009.09;1781359;80;28189;-56
2022/07/22 09:48:25;;;;;;;;;;;;;;;32.97;25.12;101008.25;1775206;80;25850;-56
2022/07/22 09:50:59;;;;;;;;;;;;;;;33.14;25.45;101005.12;1760157;80;26270;-55
2022/07/22 09:53:32;;;;;;;;;;;;;;;33.45;24.96;101004.48;1768036;80;25741;-55
2022/07/22 09:56:03;;;;;;;;;;;;;;;33.66;24.89;101011.38;1778711;80;25855;-55
2022/07/22 09:58:30;;;;;;;;;;;;;;;33.94;25.06;101014.61;1787883;78;28345;-56
2022/07/22 10:01:05;;;;;;;;;;;;;;;34.22;24.06;101008.00;1770631;80;25723;-56
2022/07/22 10:03:38;;;;;;;;;;;;;;;34.46;23.75;101002.55;1770577;80;25676;-55
2022/07/22 10:06:07;;;;;;;;;;;;;;;34.76;23.78;101003.36;1781097;80;25713;-57
2022/07/22 10:08:34;;;;;;;;;;;;;;;34.84;22.60;101001.91;1774298;81;25739;-57
2022/07/22 10:11:05;;;;;;;;;;;;;;;34.80;22.73;101003.06;1774293;81;27445;-57
2022/07/22 10:13:34;;;;;;;;;;;;;;;34.99;23.08;100996.75;1758599;80;25843;-57
2022/07/22 10:16:03;;;;;;;;;;;;;;;35.20;22.01;100998.74;1763930;80;25722;-56
2022/07/22 10:18:31;;;;;;;;;;;;;;;35.45;22.46;100992.59;1759903;80;25788;-55
2022/07/22 10:21:09;;;;;;;;;;;;;;;36.00;21.96;101006.96;1719777;81;25772;-57
2022/07/22 10:23:40;;;;;;;;;;;;;;;36.56;21.40;100993.20;1774126;81;28273;-56
2022/07/22 10:26:07;;;;;;;;;;;;;;;36.96;20.91;100996.40;1757517;80;25776;-56
2022/07/22 10:28:35;;;;;;;;;;;;;;;37.04;20.46;100992.61;1774189;81;25756;-56
2022/07/22 10:31:20;;;;;;;;;;;;;;;37.32;20.51;100983.63;1774115;81;25840;-57
2022/07/22 10:33:50;;;;;;;;;;;;;;;37.65;20.01;100994.72;1772617;81;25953;-57
2022/07/22 10:36:32;;;;;;;;;;;;;;;37.77;19.45;100991.36;1774183;80;28154;-56
2022/07/22 10:39:11;;;;;;;;;;;;;;;37.84;19.69;100986.73;1774066;81;25754;-56
2022/07/22 10:41:40;;;;;;;;;;;;;;;37.82;19.24;100990.41;1774330;81;25726;-57
2022/07/22 10:44:07;;;;;;;;;;;;;;;38.25;18.80;100987.16;1774253;81;26209;-57
2022/07/22 10:46:53;;;;;;;;;;;;;;;38.47;18.88;100986.92;1753016;80;25819;-57
2022/07/22 10:49:23;;;;;;;;;;;;;;;38.70;19.00;100984.06;1774310;81;27573;-56
2022/07/22 10:52:08;;;;;;;;;;;;;;;39.20;19.29;100988.60;1773520;81;25799;-56
2022/07/22 10:54:55;;;;;;;;;;;;;;;39.79;18.71;100975.60;1774011;81;25772;-57
2022/07/22 10:57:31;;;;;;;;;;;;;;;40.38;17.54;100984.95;1774334;80;25658;-57
2022/07/22 10:59:58;;;;;;;;;;;;;;;40.59;17.85;100972.12;1774246;80;25683;-57
2022/07/22 11:02:26;;;;;;;;;;;;;;;40.82;16.53;100982.03;1773847;81;27681;-55
2022/07/22 11:04:54;;;;;;;;;;;;;;;40.53;16.67;100982.18;1769848;79;25988;-56
2022/07/22 11:07:21;;;;;;;;;;;;;;;40.33;16.82;100986.55;1783190;79;25704;-57
2022/07/22 11:09:48;;;;;;;;;;;;;;;40.19;16.99;100971.23;1787790;79;25696;-56
2022/07/22 11:12:14;;;;;;;;;;;;;;;40.68;17.32;100975.77;1784978;80;25722;-57
2022/07/22 11:14:41;;;;;;;;;;;;;;;40.78;16.75;100974.59;1784392;78;27059;-56
2022/07/22 11:17:10;;;;;;;;;;;;;;;40.30;17.18;100978.75;1771092;79;25749;-56
2022/07/22 11:19:38;;;;;;;;;;;;;;;40.68;16.38;100964.48;1771010;79;25785;-56
2022/07/22 11:22:09;;;;;;;;;;;;;;;40.58;16.83;100972.71;1787416;79;25772;-56
2022/07/22 11:24:37;;;;;;;;;;;;;;;40.90;17.01;100971.86;1770806;79;25778;-57
2022/07/22 11:27:06;;;;;;;;;;;;;;;41.12;16.66;100965.73;1759079;81;28370;-56
2022/07/22 11:29:39;;;;;;;;;;;;;;;41.54;16.00;100965.82;1761543;79;25933;-57
2022/07/22 11:32:09;;;;;;;;;;;;;;;41.77;16.12;100962.06;1765812;80;25714;-56
2022/07/22 11:34:37;;;;;;;;;;;;;;;40.94;16.74;100956.49;1778811;80;25722;-56
2022/07/22 11:37:04;;;;;;;;;;;;;;;40.60;16.94;100966.20;1773715;79;25501;-56
2022/07/22 11:39:31;;;;;;;;;;;;;;;41.14;16.23;100958.58;1753218;81;27434;-56
2022/07/22 11:42:00;;;;;;;;;;;;;;;41.19;16.62;100953.92;1751977;82;25738;-56
2022/07/22 11:44:29;;;;;;;;;;;;;;;40.92;16.47;100954.02;1752176;81;25517;-56
2022/07/22 11:46:58;;;;;;;;;;;;;;;41.36;16.41;100948.16;1759685;79;25708;-56
2022/07/22 11:49:27;;;;;;;;;;;;;;;41.81;15.86;100952.91;1767087;81;25494;-56
2022/07/22 11:51:55;;;;;;;;;;;;;;;41.86;15.89;100955.52;1767373;80;27523;-57
2022/07/22 11:54:23;;;;;;;;;;;;;;;42.24;15.37;100943.21;1765387;81;25901;-57
2022/07/22 11:56:50;;;;;;;;;;;;;;;42.49;14.74;100948.94;1766433;79;25720;-56
2022/07/22 11:59:20;;;;;;;;;;;;;;;42.46;14.69;100952.45;1739160;81;26333;-57
2022/07/22 12:01:48;;;;;;;;;;;;;;;42.94;14.83;100938.77;1769978;79;25763;-57
2022/07/22 12:04:21;;;;;;;;;;;;;;;43.39;14.43;100946.86;1770846;80;27461;-56
2022/07/22 12:06:48;;;;;;;;;;;;;;;43.40;13.86;100941.44;1768926;79;25831;-57
2022/07/22 12:09:24;;;;;;;;;;;;;;;43.66;14.29;100939.63;1774107;81;25471;-56
2022/07/22 12:11:53;;;;;;;;;;;;;;;44.10;13.59;100936.03;1774024;81;25796;-56
2022/07/22 12:14:28;;;;;;;;;;;;;;;44.23;13.44;100926.86;1773912;81;25841;-57
2022/07/22 12:17:01;;;;;;;;;;;;;;;44.32;12.68;100942.29;1750859;80;28361;-57
2022/07/22 12:19:29;;;;;;;;;;;;;;;43.02;13.76;100937.81;1758919;81;25736;-56
2022/07/22 12:22:05;;;;;;;;;;;;;;;41.90;14.41;100939.57;1762031;80;25708;-57
2022/07/22 12:24:35;;;;;;;;;;;;;;;42.34;14.60;100931.49;1762669;81;25725;-57
2022/07/22 12:27:07;;;;;;;;;;;;;;;43.12;13.88;100929.42;1777055;80;25777;-58
2022/07/22 12:29:37;;;;;;;;;;;;;;;43.35;13.78;100926.94;1762070;80;27680;-58
2022/07/22 12:32:08;;;;;;;;;;;;;;;43.68;13.99;100921.66;1773965;80;26381;-57
2022/07/22 12:34:44;;;;;;;;;;;;;;;44.20;13.44;100912.02;1773807;80;25779;-57
2022/07/22 12:37:18;;;;;;;;;;;;;;;44.44;13.15;100908.80;1774029;81;25707;-58
2022/07/22 12:40:04;;;;;;;;;;;;;;;44.33;13.11;100914.17;1773913;81;26245;-57
2022/07/22 12:42:34;;;;;;;;;;;;;;;44.61;12.66;100914.68;1774173;80;27557;-57
2022/07/22 12:45:10;;;;;;;;;;;;;;;44.94;12.33;100909.24;1758768;80;25784;-56
2022/07/22 12:47:57;;;;;;;;;;;;;;;45.12;12.69;100903.96;1779499;79;25710;-57